Mayoworth, Wyoming
Current Conditions -  °F | °C
As of 8:53 AM on Tuesday 21 Oct 2014 (Local Time) from KBYG Reporting Station
Clear Clear  
Wind Chill: 66°   Ceiling: Unl
Heat Index: 66°   Visibility: 10mi
Dew Point: 31°   Wind: 12mph
Humidity: 27%   Direction: 240°WSW
Pressure: 29.83"   Gusts: NA
Location:  43.8063°N, 106.549°W
Report Text: KBYG 211453Z AUTO 24010KT 10SM CLR 19/M01 A2983 RMK AO2 SLP058 T01891006 56006
Loading
Personal Weather Stations






























Interactive Weather Map
Tropical Storm Tracking
New forecast layout! Learn more

10-Day Weather Forecast

Advertisements
Track Severe Weather on mobile